createdAt,value
2018-06-15T00:00:42.870Z,17.30
2018-06-15T00:01:42.860Z,17.70
2018-06-15T00:02:42.862Z,17.60
2018-06-15T00:03:42.864Z,18.10
2018-06-15T00:04:43.071Z,17.70
2018-06-15T00:05:43.076Z,17.70
2018-06-15T00:06:42.877Z,17.70
2018-06-15T00:07:43.080Z,17.50
2018-06-15T00:08:42.890Z,17.20
2018-06-15T00:09:42.884Z,17.50
2018-06-15T00:10:42.889Z,17.40
2018-06-15T00:11:42.888Z,17.00
2018-06-15T00:12:42.891Z,17.20
2018-06-15T00:13:42.896Z,17.20
2018-06-15T00:14:43.111Z,17.70
2018-06-15T00:15:43.112Z,17.20
2018-06-15T00:16:42.906Z,16.50
2018-06-15T00:17:42.907Z,18.20
2018-06-15T00:18:42.908Z,17.00
2018-06-15T00:19:42.907Z,17.40
2018-06-15T00:20:43.115Z,17.50
2018-06-15T00:21:43.118Z,17.40
2018-06-15T00:22:42.927Z,17.60
2018-06-15T00:23:42.932Z,16.70
2018-06-15T00:24:42.924Z,16.90
2018-06-15T00:25:43.141Z,16.90
2018-06-15T00:26:42.928Z,17.20
2018-06-15T00:27:42.930Z,17.80
2018-06-15T00:28:43.134Z,17.50
2018-06-15T00:29:43.136Z,16.30
2018-06-15T00:30:42.935Z,17.20
2018-06-15T00:31:43.143Z,17.10
2018-06-15T00:32:42.942Z,16.70
2018-06-15T00:33:43.159Z,17.60
2018-06-15T00:34:43.152Z,17.10
2018-06-15T00:35:42.959Z,17.70
2018-06-15T00:36:42.954Z,17.60
2018-06-15T00:37:42.968Z,17.30
2018-06-15T00:38:42.967Z,17.30
2018-06-15T00:39:42.958Z,18.10
2018-06-15T00:40:43.172Z,16.70
2018-06-15T00:41:42.964Z,17.30
2018-06-15T00:42:42.966Z,17.10
2018-06-15T00:43:42.968Z,17.40
2018-06-15T00:44:42.980Z,17.50
2018-06-15T00:45:42.977Z,17.20
2018-06-15T00:46:43.189Z,17.50
2018-06-15T00:47:42.986Z,18.20
2018-06-15T00:48:43.181Z,17.60
2018-06-15T00:49:42.984Z,18.00
2018-06-15T00:50:42.993Z,17.60
2018-06-15T00:51:43.187Z,17.70
2018-06-15T00:52:42.988Z,18.30
2018-06-15T00:53:42.992Z,17.00
2018-06-15T00:54:42.991Z,18.00
2018-06-15T00:55:43.198Z,17.70
2018-06-15T00:56:42.996Z,17.20
2018-06-15T00:57:43.015Z,16.90
2018-06-15T00:58:43.001Z,17.10
2018-06-15T00:59:43.215Z,17.30
2018-06-15T01:00:43.005Z,18.30
2018-06-15T01:01:43.008Z,17.50
2018-06-15T01:02:43.021Z,17.70
2018-06-15T01:03:43.012Z,17.80
2018-06-15T01:04:43.019Z,17.60
2018-06-15T01:05:43.018Z,17.30
2018-06-15T01:06:43.021Z,17.60
2018-06-15T01:07:43.033Z,18.10
2018-06-15T01:08:43.034Z,18.10
2018-06-15T01:09:43.061Z,18.20
2018-06-15T01:10:43.027Z,17.90
2018-06-15T01:11:43.034Z,17.70
2018-06-15T01:12:43.034Z,18.60
2018-06-15T01:13:43.038Z,17.90
2018-06-15T01:14:43.243Z,18.70
2018-06-15T01:15:43.252Z,18.30
2018-06-15T01:16:43.246Z,17.50
2018-06-15T01:17:43.055Z,17.50
2018-06-15T01:18:43.060Z,17.20
2018-06-15T01:19:43.049Z,17.20
2018-06-15T01:20:43.145Z,17.30
2018-06-15T01:21:43.257Z,18.50
2018-06-15T01:22:43.058Z,18.20
2018-06-15T01:23:43.261Z,18.10
2018-06-15T01:24:43.063Z,18.30
2018-06-15T01:25:43.064Z,17.80
2018-06-15T01:26:43.064Z,18.50
2018-06-15T01:27:43.068Z,17.10
2018-06-15T01:28:43.275Z,18.50
2018-06-15T01:29:43.077Z,19.20
2018-06-15T01:30:43.280Z,18.30
2018-06-15T01:31:43.079Z,18.40
2018-06-15T01:32:43.081Z,19.60
2018-06-15T01:33:43.092Z,20.10
2018-06-15T01:34:43.085Z,20.50
2018-06-15T01:35:43.102Z,19.70
2018-06-15T01:36:43.102Z,19.10
2018-06-15T01:37:43.121Z,18.90
2018-06-15T01:38:43.098Z,19.30
2018-06-15T01:39:43.101Z,19.70
2018-06-15T01:40:43.315Z,18.90
2018-06-15T01:41:43.105Z,20.10
2018-06-15T01:42:43.106Z,19.20
2018-06-15T01:43:43.313Z,17.70
2018-06-15T01:44:43.109Z,18.80
2018-06-15T01:45:43.114Z,18.00
2018-06-15T01:46:43.116Z,17.80
2018-06-15T01:47:43.321Z,18.10
2018-06-15T01:48:43.132Z,19.70
2018-06-15T01:49:43.123Z,18.20
2018-06-15T01:50:43.339Z,18.70
2018-06-15T01:51:43.345Z,20.10
2018-06-15T01:52:43.338Z,19.40
2018-06-15T01:53:43.132Z,19.40
2018-06-15T01:54:43.350Z,20.00
2018-06-15T01:55:43.138Z,18.80
2018-06-15T01:56:43.155Z,19.70
2018-06-15T01:57:43.157Z,20.40
2018-06-15T01:58:43.359Z,19.20
2018-06-15T01:59:43.148Z,19.70
2018-06-15T02:00:43.165Z,20.30
2018-06-15T02:01:43.367Z,20.60
2018-06-15T02:02:43.156Z,20.90
2018-06-15T02:03:43.187Z,21.00
2018-06-15T02:04:43.362Z,19.40
2018-06-15T02:05:43.168Z,20.00
2018-06-15T02:06:43.178Z,19.60
2018-06-15T02:07:43.428Z,21.00
2018-06-15T02:08:43.173Z,21.00
2018-06-15T02:09:43.176Z,20.70
2018-06-15T02:10:43.179Z,20.40
2018-06-15T02:11:43.179Z,19.80
2018-06-15T02:12:43.182Z,19.70
2018-06-15T02:13:43.195Z,18.70
2018-06-15T02:14:43.187Z,19.60
2018-06-15T02:15:43.201Z,20.90
2018-06-15T02:16:43.192Z,20.30
2018-06-15T02:17:43.212Z,21.20
2018-06-15T02:18:43.197Z,22.10
2018-06-15T02:19:43.202Z,21.60
2018-06-15T02:20:43.214Z,22.20
2018-06-15T02:21:43.210Z,21.00
2018-06-15T02:22:43.409Z,22.20
2018-06-15T02:23:43.207Z,23.80
2018-06-15T02:24:43.226Z,23.40
2018-06-15T02:25:43.215Z,21.70
2018-06-15T02:26:43.225Z,21.00
2018-06-15T02:27:43.220Z,20.70
2018-06-15T02:28:43.232Z,20.30
2018-06-15T02:29:43.427Z,20.40
2018-06-15T02:30:43.428Z,21.00
2018-06-15T02:31:43.238Z,20.60
2018-06-15T02:32:43.249Z,22.20
2018-06-15T02:33:43.451Z,20.50
2018-06-15T02:34:43.238Z,21.00
2018-06-15T02:35:43.238Z,20.80
2018-06-15T02:36:43.242Z,20.20
2018-06-15T02:37:43.245Z,20.70
2018-06-15T02:38:43.256Z,20.20
2018-06-15T02:39:43.250Z,19.50
2018-06-15T02:40:43.266Z,20.90
2018-06-15T02:41:43.264Z,21.30
2018-06-15T02:42:43.269Z,19.30
2018-06-15T02:43:43.464Z,19.50
2018-06-15T02:44:43.263Z,19.80
2018-06-15T02:45:43.269Z,19.80
2018-06-15T02:46:43.469Z,19.90
2018-06-15T02:47:43.471Z,19.70
2018-06-15T02:48:43.281Z,20.20
2018-06-15T02:49:43.479Z,20.60
2018-06-15T02:50:43.277Z,20.40
2018-06-15T02:51:43.285Z,21.00
2018-06-15T02:52:43.482Z,21.70
2018-06-15T02:53:43.296Z,23.00
2018-06-15T02:54:43.286Z,22.40
2018-06-15T02:55:43.293Z,21.30
2018-06-15T02:56:43.293Z,22.40
2018-06-15T02:57:43.295Z,22.40
2018-06-15T02:58:43.296Z,22.50
2018-06-15T02:59:43.304Z,21.50
2018-06-15T03:00:43.302Z,22.00
2018-06-15T03:01:43.304Z,20.80
2018-06-15T03:02:43.318Z,22.00
2018-06-15T03:03:43.314Z,22.60
2018-06-15T03:04:43.515Z,20.90
2018-06-15T03:05:43.316Z,21.90
2018-06-15T03:06:43.316Z,21.60
2018-06-15T03:07:43.317Z,21.60
2018-06-15T03:08:43.527Z,22.50
2018-06-15T03:09:43.322Z,22.10
2018-06-15T03:10:43.337Z,23.40
2018-06-15T03:11:43.531Z,24.40
2018-06-15T03:12:43.331Z,24.10
2018-06-15T03:13:43.541Z,22.60
2018-06-15T03:14:43.336Z,23.20
2018-06-15T03:15:43.339Z,24.00
2018-06-15T03:16:43.343Z,24.10
2018-06-15T03:17:43.345Z,23.90
2018-06-15T03:18:43.344Z,23.80
2018-06-15T03:19:43.359Z,24.80
2018-06-15T03:20:43.353Z,23.50
2018-06-15T03:21:43.355Z,23.40
2018-06-15T03:22:43.356Z,22.90
2018-06-15T03:23:43.360Z,23.80
2018-06-15T03:24:43.361Z,25.00
2018-06-15T03:25:43.362Z,24.30
2018-06-15T03:26:43.370Z,24.40
2018-06-15T03:27:43.370Z,25.40
2018-06-15T03:28:43.370Z,25.90
2018-06-15T03:29:43.373Z,26.60
2018-06-15T03:30:43.386Z,26.60
2018-06-15T03:31:43.387Z,26.00
2018-06-15T03:32:43.380Z,25.90
2018-06-15T03:33:43.394Z,25.40
2018-06-15T03:34:43.389Z,25.90
2018-06-15T03:35:43.387Z,26.90
2018-06-15T03:36:43.392Z,26.20
2018-06-15T03:37:43.394Z,25.90
2018-06-15T03:38:43.397Z,26.30
2018-06-15T03:39:43.399Z,27.10
2018-06-15T03:40:43.402Z,26.30
2018-06-15T03:41:43.402Z,26.40
2018-06-15T03:42:43.403Z,25.30
2018-06-15T03:43:43.412Z,26.20
2018-06-15T03:44:43.440Z,25.70
2018-06-15T03:45:43.413Z,24.90
2018-06-15T03:46:43.426Z,25.60
2018-06-15T03:47:43.417Z,25.40
2018-06-15T03:48:43.421Z,25.80
2018-06-15T03:49:43.423Z,25.90
2018-06-15T03:50:43.428Z,25.80
2018-06-15T03:51:43.439Z,25.50
2018-06-15T03:52:43.631Z,25.50
2018-06-15T03:53:43.445Z,27.10
2018-06-15T03:54:43.435Z,26.00
2018-06-15T03:55:43.663Z,25.50
2018-06-15T03:56:43.444Z,26.20
2018-06-15T03:57:43.663Z,25.80
2018-06-15T03:58:43.454Z,24.60
2018-06-15T03:59:43.667Z,25.50
2018-06-15T04:00:43.455Z,25.70
2018-06-15T04:01:43.473Z,25.50
2018-06-15T04:02:43.659Z,26.40
2018-06-15T04:03:43.457Z,26.40
2018-06-15T04:04:43.474Z,27.00
2018-06-15T04:05:43.462Z,24.60
2018-06-15T04:06:43.465Z,25.40
2018-06-15T04:07:43.535Z,24.40
2018-06-15T04:08:43.690Z,25.80
2018-06-15T04:09:43.473Z,25.30
2018-06-15T04:10:43.476Z,25.90
2018-06-15T04:11:43.492Z,24.60
2018-06-15T04:12:43.682Z,24.80
2018-06-15T04:13:43.487Z,24.10
2018-06-15T04:14:43.687Z,26.20
2018-06-15T04:15:43.489Z,24.30
2018-06-15T04:16:43.489Z,25.50
2018-06-15T04:17:43.505Z,25.30
2018-06-15T04:18:43.496Z,25.20
2018-06-15T04:19:43.541Z,24.60
2018-06-15T04:20:43.525Z,25.40
2018-06-15T04:21:43.506Z,25.50
2018-06-15T04:22:43.506Z,24.40
2018-06-15T04:23:43.541Z,24.20
2018-06-15T04:24:43.513Z,24.60
2018-06-15T04:25:43.531Z,24.90
2018-06-15T04:26:43.513Z,25.30
2018-06-15T04:27:43.520Z,25.40
2018-06-15T04:28:43.521Z,25.20
2018-06-15T04:29:43.523Z,24.80
2018-06-15T04:30:43.524Z,24.80
2018-06-15T04:31:43.527Z,25.50
2018-06-15T04:32:43.535Z,25.90
2018-06-15T04:33:43.548Z,24.40
2018-06-15T04:34:43.562Z,24.70
2018-06-15T04:35:43.561Z,24.70
2018-06-15T04:36:43.551Z,25.60
2018-06-15T04:37:43.549Z,24.60
2018-06-15T04:38:43.567Z,23.80
2018-06-15T04:39:43.574Z,23.00
2018-06-15T04:40:43.567Z,23.70
2018-06-15T04:41:43.564Z,23.80
2018-06-15T04:42:43.559Z,25.00
2018-06-15T04:43:43.580Z,25.50
2018-06-15T04:44:43.574Z,25.10
2018-06-15T04:45:43.581Z,24.90
2018-06-15T04:46:43.570Z,24.30
2018-06-15T04:47:43.573Z,25.40
2018-06-15T04:48:43.583Z,26.30
2018-06-15T04:49:43.576Z,26.50
2018-06-15T04:50:43.576Z,25.60
2018-06-15T04:51:43.580Z,26.10
2018-06-15T04:52:43.592Z,26.30
2018-06-15T04:53:43.629Z,27.00
2018-06-15T04:54:43.620Z,25.80
2018-06-15T04:55:43.618Z,25.90
2018-06-15T04:56:43.592Z,26.60
2018-06-15T04:57:43.594Z,26.40
2018-06-15T04:58:43.609Z,25.40
2018-06-15T04:59:43.620Z,25.70
2018-06-15T05:00:43.622Z,25.60
2018-06-15T05:01:43.606Z,26.10
2018-06-15T05:02:43.656Z,26.40
2018-06-15T05:03:43.709Z,27.40
2018-06-15T05:04:43.619Z,29.30
2018-06-15T05:05:43.843Z,28.60
2018-06-15T05:06:43.647Z,28.30
2018-06-15T05:07:43.636Z,27.40
2018-06-15T05:08:43.642Z,26.60
2018-06-15T05:09:43.639Z,27.60
2018-06-15T05:10:43.643Z,30.90
2018-06-15T05:11:43.683Z,31.10
2018-06-15T05:12:43.703Z,30.70
2018-06-15T05:13:43.647Z,30.40
2018-06-15T05:14:43.647Z,30.90
2018-06-15T05:15:43.849Z,30.40
2018-06-15T05:16:43.662Z,28.60
2018-06-15T05:17:43.654Z,28.60
2018-06-15T05:18:43.655Z,28.50
2018-06-15T05:19:43.657Z,28.00
2018-06-15T05:20:43.661Z,28.70
2018-06-15T05:21:43.686Z,29.90
2018-06-15T05:22:43.690Z,29.30
2018-06-15T05:23:43.677Z,32.60
2018-06-15T05:24:43.872Z,29.90
2018-06-15T05:25:43.890Z,29.40
2018-06-15T05:26:43.677Z,31.30
2018-06-15T05:27:43.679Z,29.00
2018-06-15T05:28:43.680Z,30.20
2018-06-15T05:29:43.891Z,28.80
2018-06-15T05:30:43.696Z,30.00
2018-06-15T05:31:43.699Z,28.50
2018-06-15T05:32:43.708Z,29.10
2018-06-15T05:33:43.705Z,30.90
2018-06-15T05:34:43.725Z,32.90
2018-06-15T05:35:43.703Z,32.90
2018-06-15T05:36:43.702Z,33.20
2018-06-15T05:37:43.713Z,34.20
2018-06-15T05:38:43.710Z,34.80
2018-06-15T05:39:43.723Z,35.20
2018-06-15T05:40:43.915Z,35.00
2018-06-15T05:41:43.727Z,34.50
2018-06-15T05:42:43.768Z,33.50
2018-06-15T05:43:43.733Z,34.20
2018-06-15T05:44:43.739Z,35.60
2018-06-15T05:45:43.738Z,36.60
2018-06-15T05:46:43.739Z,36.10
2018-06-15T05:47:43.956Z,35.40
2018-06-15T05:48:43.747Z,36.20
2018-06-15T05:49:43.742Z,37.40
2018-06-15T05:50:43.741Z,36.10
2018-06-15T05:51:43.756Z,35.80
2018-06-15T05:52:43.759Z,34.30
2018-06-15T05:53:43.751Z,36.70
2018-06-15T05:54:43.953Z,36.50
2018-06-15T05:55:43.806Z,37.10
2018-06-15T05:56:43.781Z,38.10
2018-06-15T05:57:43.785Z,35.80
2018-06-15T05:58:43.991Z,34.20
2018-06-15T05:59:43.762Z,35.20
2018-06-15T06:00:43.773Z,33.80
2018-06-15T06:01:43.785Z,35.40
2018-06-15T06:02:43.778Z,35.60
2018-06-15T06:03:43.776Z,35.70
2018-06-15T06:04:43.788Z,35.30
2018-06-15T06:05:43.784Z,35.40
2018-06-15T06:06:43.797Z,34.60
2018-06-15T06:07:43.789Z,33.60
2018-06-15T06:08:43.789Z,33.40
2018-06-15T06:09:43.805Z,35.60
2018-06-15T06:10:44.009Z,34.20
2018-06-15T06:11:43.802Z,33.40
2018-06-15T06:12:43.814Z,32.00
2018-06-15T06:13:43.807Z,32.70
2018-06-15T06:14:43.807Z,33.10
2018-06-15T06:15:43.817Z,33.50
2018-06-15T06:16:43.816Z,33.90
2018-06-15T06:17:43.852Z,34.10
2018-06-15T06:18:43.830Z,34.40
2018-06-15T06:19:43.880Z,33.90
2018-06-15T06:20:43.830Z,34.50
2018-06-15T06:21:43.840Z,32.20
2018-06-15T06:22:43.847Z,31.60
2018-06-15T06:23:43.837Z,33.10
2018-06-15T06:24:43.838Z,32.30
2018-06-15T06:25:44.044Z,32.10
2018-06-15T06:26:43.890Z,33.20
2018-06-15T06:27:43.849Z,32.50
2018-06-15T06:28:43.862Z,32.90
2018-06-15T06:29:43.855Z,31.60
2018-06-15T06:30:43.879Z,32.30
2018-06-15T06:31:44.062Z,31.90
2018-06-15T06:32:43.890Z,31.20
2018-06-15T06:33:43.880Z,30.30
2018-06-15T06:34:43.897Z,30.80
2018-06-15T06:35:44.072Z,30.80
2018-06-15T06:36:44.095Z,30.20
2018-06-15T06:37:43.889Z,32.10
2018-06-15T06:38:43.894Z,31.90
2018-06-15T06:39:43.885Z,30.90
2018-06-15T06:40:43.903Z,30.30
2018-06-15T06:41:44.094Z,29.90
2018-06-15T06:42:43.896Z,28.20
2018-06-15T06:43:43.939Z,31.60
2018-06-15T06:44:43.912Z,31.50
2018-06-15T06:45:43.918Z,32.70
2018-06-15T06:46:43.927Z,33.70
2018-06-15T06:47:43.918Z,32.30
2018-06-15T06:48:43.913Z,32.40
2018-06-15T06:49:43.916Z,33.60
2018-06-15T06:50:43.946Z,31.60
2018-06-15T06:51:43.937Z,32.50
2018-06-15T06:52:43.935Z,34.10
2018-06-15T06:53:43.927Z,34.70
2018-06-15T06:54:43.931Z,34.10
2018-06-15T06:55:43.948Z,33.30
2018-06-15T06:56:43.938Z,32.90
2018-06-15T06:57:44.159Z,34.40
2018-06-15T06:58:43.971Z,33.00
2018-06-15T06:59:43.963Z,33.90
2018-06-15T07:00:43.948Z,33.10
2018-06-15T07:01:43.951Z,34.20
2018-06-15T07:02:43.963Z,34.60
2018-06-15T07:03:44.172Z,34.80
2018-06-15T07:04:43.961Z,34.70
2018-06-15T07:05:43.966Z,34.80
2018-06-15T07:06:43.982Z,35.70
2018-06-15T07:07:43.972Z,34.60
2018-06-15T07:08:43.989Z,34.90
2018-06-15T07:09:44.002Z,33.80
2018-06-15T07:10:43.988Z,34.00
2018-06-15T07:11:44.010Z,33.00
2018-06-15T07:12:43.986Z,33.00
2018-06-15T07:13:43.988Z,32.80
2018-06-15T07:14:43.989Z,34.00
2018-06-15T07:15:44.003Z,32.40
2018-06-15T07:16:44.010Z,32.60
2018-06-15T07:17:44.010Z,31.80
2018-06-15T07:18:44.005Z,31.90
2018-06-15T07:19:44.015Z,30.90
2018-06-15T07:20:44.010Z,31.80
2018-06-15T07:21:44.015Z,30.40
2018-06-15T07:22:44.237Z,30.40
2018-06-15T07:23:44.100Z,30.30
2018-06-15T07:24:44.232Z,31.40
2018-06-15T07:25:44.023Z,33.00
2018-06-15T07:26:44.026Z,34.10
2018-06-15T07:27:44.028Z,34.00
2018-06-15T07:28:44.045Z,32.50
2018-06-15T07:29:44.049Z,31.60
2018-06-15T07:30:44.050Z,30.90
2018-06-15T07:31:44.079Z,31.80
2018-06-15T07:32:44.042Z,30.10
2018-06-15T07:33:44.048Z,30.60
2018-06-15T07:34:44.058Z,29.50
2018-06-15T07:35:44.265Z,30.50
2018-06-15T07:36:44.083Z,29.10
2018-06-15T07:37:44.065Z,29.10
2018-06-15T07:38:44.275Z,31.00
2018-06-15T07:39:44.267Z,30.00
2018-06-15T07:40:44.067Z,28.40
2018-06-15T07:41:44.285Z,28.50
2018-06-15T07:42:44.086Z,27.70
2018-06-15T07:43:44.079Z,25.40
2018-06-15T07:44:44.082Z,27.00
2018-06-15T07:45:44.095Z,26.90
2018-06-15T07:46:44.308Z,27.50
2018-06-15T07:47:44.304Z,27.00
2018-06-15T07:48:44.306Z,25.70
2018-06-15T07:49:44.109Z,24.60
2018-06-15T07:50:44.100Z,25.30
2018-06-15T07:51:44.132Z,23.00
2018-06-15T07:52:44.123Z,22.00
2018-06-15T07:53:44.314Z,22.00
2018-06-15T07:54:44.134Z,20.00
2018-06-15T07:55:44.118Z,21.10
2018-06-15T07:56:44.119Z,22.30
2018-06-15T07:57:44.124Z,22.60
2018-06-15T07:58:44.125Z,23.50
2018-06-15T07:59:44.244Z,22.60
2018-06-15T08:00:44.162Z,22.90
2018-06-15T08:01:44.152Z,22.00
2018-06-15T08:02:44.141Z,22.20
2018-06-15T08:03:44.348Z,21.90
2018-06-15T08:04:44.159Z,20.10
2018-06-15T08:05:44.170Z,19.50
2018-06-15T08:06:44.357Z,20.70
2018-06-15T08:07:44.360Z,20.80
2018-06-15T08:08:44.162Z,20.40
2018-06-15T08:09:44.167Z,21.50
2018-06-15T08:10:44.185Z,21.90
2018-06-15T08:11:44.389Z,23.70
2018-06-15T08:12:44.400Z,21.60
2018-06-15T08:13:44.383Z,20.40
2018-06-15T08:14:44.183Z,20.50
2018-06-15T08:15:44.197Z,21.60
2018-06-15T08:16:44.395Z,21.40
2018-06-15T08:17:44.210Z,22.80
2018-06-15T08:18:44.425Z,25.90
2018-06-15T08:19:44.220Z,25.00
2018-06-15T08:20:44.222Z,25.40
2018-06-15T08:21:44.232Z,25.60
2018-06-15T08:22:44.224Z,26.80
2018-06-15T08:23:44.218Z,24.20
2018-06-15T08:24:44.233Z,24.60
2018-06-15T08:25:44.441Z,25.00
2018-06-15T08:26:44.256Z,26.50
2018-06-15T08:27:44.493Z,25.20
2018-06-15T08:28:44.462Z,24.40
2018-06-15T08:29:44.256Z,22.50
2018-06-15T08:30:44.246Z,20.70
2018-06-15T08:31:44.252Z,22.50
2018-06-15T08:32:44.472Z,22.80
2018-06-15T08:33:44.463Z,21.50
2018-06-15T08:34:44.282Z,22.40
2018-06-15T08:35:44.480Z,22.00
2018-06-15T08:36:44.472Z,22.80
2018-06-15T08:37:44.296Z,22.70
2018-06-15T08:38:44.275Z,22.10
2018-06-15T08:39:44.291Z,22.40
2018-06-15T08:40:44.284Z,21.40
2018-06-15T08:41:44.287Z,22.10
2018-06-15T08:42:44.493Z,21.70
2018-06-15T08:43:44.295Z,21.30
2018-06-15T08:44:44.309Z,21.70
2018-06-15T08:45:44.529Z,21.80
2018-06-15T08:46:44.324Z,21.00
2018-06-15T08:47:44.314Z,21.20
2018-06-15T08:48:44.528Z,21.50
2018-06-15T08:49:44.317Z,20.70
2018-06-15T08:50:44.321Z,22.30
2018-06-15T08:51:44.526Z,20.00
2018-06-15T08:52:44.395Z,19.50
2018-06-15T08:53:44.333Z,20.60
2018-06-15T08:54:44.346Z,20.50
2018-06-15T08:55:44.342Z,18.90
2018-06-15T08:56:44.357Z,23.20
2018-06-15T08:57:44.359Z,23.30
2018-06-15T08:58:44.362Z,22.30
2018-06-15T08:59:44.354Z,21.50
2018-06-15T09:00:44.363Z,21.00
2018-06-15T09:01:44.379Z,20.30
2018-06-15T09:02:44.365Z,20.80
2018-06-15T09:03:44.375Z,19.60
2018-06-15T09:04:44.375Z,20.20
2018-06-15T09:05:44.380Z,19.80
2018-06-15T09:06:44.594Z,22.70
2018-06-15T09:07:44.394Z,22.20
2018-06-15T09:08:44.393Z,20.30
2018-06-15T09:09:44.597Z,22.60
2018-06-15T09:10:44.396Z,22.10
2018-06-15T09:11:44.398Z,21.30
2018-06-15T09:12:44.404Z,21.90
2018-06-15T09:13:44.612Z,20.70
2018-06-15T09:14:44.623Z,19.80
2018-06-15T09:15:44.641Z,21.60
2018-06-15T09:16:44.430Z,20.30
2018-06-15T09:17:44.424Z,20.70
2018-06-15T09:18:44.429Z,20.50
2018-06-15T09:19:44.440Z,20.60
2018-06-15T09:20:44.434Z,18.90
2018-06-15T09:21:44.438Z,18.80
2018-06-15T09:22:44.440Z,17.30
2018-06-15T09:23:44.444Z,18.60
2018-06-15T09:24:44.452Z,18.10
2018-06-15T09:25:44.481Z,17.80
2018-06-15T09:26:44.473Z,18.30
2018-06-15T09:27:44.495Z,18.50
2018-06-15T09:28:44.480Z,17.70
2018-06-15T09:29:44.490Z,18.50
2018-06-15T09:30:44.732Z,18.60
2018-06-15T09:31:44.493Z,18.60
2018-06-15T09:32:44.582Z,17.40
2018-06-15T09:33:44.686Z,17.30
2018-06-15T09:34:44.690Z,16.80
2018-06-15T09:35:44.697Z,16.20
2018-06-15T09:36:44.496Z,16.90
2018-06-15T09:37:44.702Z,16.30
2018-06-15T09:38:44.514Z,16.60
2018-06-15T09:39:44.506Z,16.00
2018-06-15T09:40:44.713Z,15.10
2018-06-15T09:41:44.526Z,16.50
2018-06-15T09:42:44.531Z,15.90
2018-06-15T09:43:44.520Z,15.90
2018-06-15T09:44:44.524Z,16.50
2018-06-15T09:45:44.540Z,16.40
2018-06-15T09:46:44.543Z,16.20
2018-06-15T09:47:44.540Z,16.60
2018-06-15T09:48:44.542Z,16.10
2018-06-15T09:49:44.554Z,16.30
2018-06-15T09:50:44.547Z,16.20
2018-06-15T09:51:44.549Z,14.20
2018-06-15T09:52:44.760Z,15.40
2018-06-15T09:53:44.557Z,15.00
2018-06-15T09:54:44.563Z,15.30
2018-06-15T09:55:44.574Z,16.00
2018-06-15T09:56:44.771Z,16.40
2018-06-15T09:57:44.573Z,16.10
2018-06-15T09:58:44.624Z,16.20
2018-06-15T09:59:44.580Z,15.00
2018-06-15T10:00:44.584Z,15.40
2018-06-15T10:01:44.791Z,14.90
2018-06-15T10:02:44.793Z,15.10
2018-06-15T10:03:44.596Z,15.30
2018-06-15T10:04:44.803Z,15.00
2018-06-15T10:05:44.601Z,15.20
2018-06-15T10:06:44.606Z,15.10
2018-06-15T10:07:44.623Z,14.90
2018-06-15T10:08:44.611Z,13.80
2018-06-15T10:09:44.615Z,14.70
2018-06-15T10:10:44.618Z,14.00
2018-06-15T10:11:44.624Z,14.10
2018-06-15T10:12:44.628Z,14.70
2018-06-15T10:13:44.631Z,13.50
2018-06-15T10:14:44.847Z,12.70
2018-06-15T10:15:44.637Z,12.70
2018-06-15T10:16:44.707Z,12.90
2018-06-15T10:17:44.660Z,13.00
2018-06-15T10:18:44.649Z,12.70
2018-06-15T10:19:44.861Z,11.40
2018-06-15T10:20:44.667Z,11.40
2018-06-15T10:21:44.863Z,11.60
2018-06-15T10:22:44.661Z,11.00
2018-06-15T10:23:44.669Z,11.80
2018-06-15T10:24:44.670Z,10.50
2018-06-15T10:25:44.674Z,10.50
2018-06-15T10:26:44.891Z,11.10
2018-06-15T10:27:44.897Z,10.80
2018-06-15T10:28:44.696Z,10.60
2018-06-15T10:29:44.715Z,10.30
2018-06-15T10:30:44.706Z,9.20
2018-06-15T10:31:44.699Z,9.90
2018-06-15T10:32:44.726Z,9.80
2018-06-15T10:33:44.725Z,10.10
2018-06-15T10:34:44.718Z,10.10
2018-06-15T10:35:44.709Z,9.90
2018-06-15T10:36:44.715Z,10.30
2018-06-15T10:37:44.720Z,10.20
2018-06-15T10:38:44.732Z,9.40
2018-06-15T10:39:44.725Z,9.40
2018-06-15T10:40:44.730Z,9.50
2018-06-15T10:41:44.744Z,10.60
2018-06-15T10:42:44.750Z,10.10
2018-06-15T10:43:44.754Z,9.70
2018-06-15T10:44:44.951Z,9.90
2018-06-15T10:45:44.761Z,9.70
2018-06-15T10:46:44.767Z,9.10
2018-06-15T10:47:44.958Z,9.70
2018-06-15T10:48:44.760Z,9.00
2018-06-15T10:49:44.774Z,9.50
2018-06-15T10:50:44.778Z,8.90
2018-06-15T10:51:44.771Z,9.10
2018-06-15T10:52:44.779Z,9.30
2018-06-15T10:53:44.786Z,9.90
2018-06-15T10:54:44.785Z,8.10
2018-06-15T10:55:44.785Z,8.70
2018-06-15T10:56:44.803Z,8.00
2018-06-15T10:57:44.797Z,7.70
2018-06-15T10:58:45.000Z,7.80
2018-06-15T10:59:44.814Z,8.30
2018-06-15T11:00:44.808Z,8.60
2018-06-15T11:01:44.814Z,8.00
2018-06-15T11:02:44.814Z,8.40
2018-06-15T11:03:44.822Z,8.80
2018-06-15T11:04:44.847Z,7.60
2018-06-15T11:05:45.046Z,8.30
2018-06-15T11:06:44.828Z,8.30
2018-06-15T11:07:45.049Z,8.60
2018-06-15T11:08:44.854Z,8.10
2018-06-15T11:09:44.842Z,8.10
2018-06-15T11:10:44.845Z,8.30
2018-06-15T11:11:44.868Z,8.10
2018-06-15T11:12:44.863Z,8.00
2018-06-15T11:13:44.858Z,7.70
2018-06-15T11:14:44.865Z,7.40
2018-06-15T11:15:44.866Z,7.30
2018-06-15T11:16:44.869Z,7.60
2018-06-15T11:17:44.889Z,7.40
2018-06-15T11:18:44.889Z,8.10
2018-06-15T11:19:45.098Z,8.00
2018-06-15T11:20:45.088Z,7.90
2018-06-15T11:21:44.927Z,7.70
2018-06-15T11:22:44.893Z,7.90
2018-06-15T11:23:44.906Z,7.60
2018-06-15T11:24:44.903Z,6.50
2018-06-15T11:25:44.913Z,7.00
2018-06-15T11:26:45.121Z,6.60
2018-06-15T11:27:44.922Z,6.30
2018-06-15T11:28:44.915Z,6.50
2018-06-15T11:29:44.946Z,6.40
2018-06-15T11:30:44.932Z,6.20
2018-06-15T11:31:44.927Z,6.80
2018-06-15T11:32:44.930Z,6.90
2018-06-15T11:33:44.943Z,6.70
2018-06-15T11:34:44.959Z,6.80
2018-06-15T11:35:44.952Z,6.60
2018-06-15T11:36:44.959Z,6.20
2018-06-15T11:37:44.951Z,6.40
2018-06-15T11:38:44.964Z,6.30
2018-06-15T11:39:44.992Z,6.20
2018-06-15T11:40:45.176Z,6.20
2018-06-15T11:41:45.177Z,6.30
2018-06-15T11:42:44.983Z,6.40
2018-06-15T11:43:45.175Z,6.60
2018-06-15T11:44:44.976Z,6.50
2018-06-15T11:45:44.996Z,6.80
2018-06-15T11:46:45.197Z,6.70
2018-06-15T11:47:45.000Z,6.50
2018-06-15T11:48:45.006Z,7.00
2018-06-15T11:49:44.996Z,6.70
2018-06-15T11:50:45.009Z,7.00
2018-06-15T11:51:45.006Z,6.70
2018-06-15T11:52:45.029Z,6.60
2018-06-15T11:53:45.017Z,6.50
2018-06-15T11:54:45.027Z,6.80
2018-06-15T11:55:45.021Z,6.60
2018-06-15T11:56:45.027Z,6.40
2018-06-15T11:57:45.034Z,6.00
2018-06-15T11:58:45.060Z,6.30
2018-06-15T11:59:45.052Z,5.90
2018-06-15T12:00:45.064Z,4.70
2018-06-15T12:01:45.089Z,4.00
2018-06-15T12:02:45.048Z,4.40
2018-06-15T12:03:45.066Z,4.10
2018-06-15T12:04:45.267Z,4.10
2018-06-15T12:05:45.066Z,4.50
2018-06-15T12:06:45.075Z,5.10
2018-06-15T12:07:45.290Z,5.20
2018-06-15T12:08:45.073Z,5.40
2018-06-15T12:09:45.095Z,5.70
2018-06-15T12:10:45.079Z,4.90
2018-06-15T12:11:45.088Z,4.90
2018-06-15T12:12:45.093Z,5.60
2018-06-15T12:13:45.106Z,5.00
2018-06-15T12:14:45.124Z,5.40
2018-06-15T12:15:45.113Z,5.30
2018-06-15T12:16:45.107Z,5.60
2018-06-15T12:17:45.109Z,5.60
2018-06-15T12:18:45.113Z,5.20
2018-06-15T12:19:45.120Z,5.40
2018-06-15T12:20:45.123Z,5.50
2018-06-15T12:21:45.137Z,5.20
2018-06-15T12:22:45.145Z,5.00
2018-06-15T12:23:45.148Z,5.10
2018-06-15T12:24:45.139Z,4.70
2018-06-15T12:25:45.143Z,5.10
2018-06-15T12:26:45.160Z,4.70
2018-06-15T12:27:45.164Z,5.10
2018-06-15T12:28:45.157Z,5.20
2018-06-15T12:29:45.163Z,5.10
2018-06-15T12:30:45.162Z,5.20
2018-06-15T12:31:45.169Z,5.20
2018-06-15T12:32:45.205Z,5.40
2018-06-15T12:33:45.186Z,5.00
2018-06-15T12:34:45.179Z,5.30
2018-06-15T12:35:45.189Z,5.20
2018-06-15T12:36:45.213Z,5.60
2018-06-15T12:37:45.203Z,5.10
2018-06-15T12:38:45.210Z,4.90
2018-06-15T12:39:45.201Z,5.40
2018-06-15T12:40:45.221Z,4.90
2018-06-15T12:41:45.218Z,4.90
2018-06-15T12:42:45.225Z,4.80
2018-06-15T12:43:45.217Z,4.90
2018-06-15T12:44:45.222Z,5.10
2018-06-15T12:45:45.247Z,5.10
2018-06-15T12:46:45.232Z,5.30
2018-06-15T12:47:45.232Z,5.40
2018-06-15T12:48:45.262Z,5.60
2018-06-15T12:49:45.252Z,5.60
2018-06-15T12:50:45.256Z,5.20
2018-06-15T12:51:45.250Z,5.40
2018-06-15T12:52:45.471Z,6.00
2018-06-15T12:53:45.269Z,5.50
2018-06-15T12:54:45.276Z,5.90
2018-06-15T12:55:45.282Z,5.50
2018-06-15T12:56:45.280Z,5.60
2018-06-15T12:57:45.275Z,5.70